sensor_id;sensor_type;location;lat;lon;timestamp;P1;durP1;ratioP1;P2;durP2;ratioP2
74044;SDS011;62389;51.412;5.436;2022-11-20T00:02:18;14.73;;;8.73;;
74044;SDS011;62389;51.412;5.436;2022-11-20T00:04:43;14.02;;;7.90;;
74044;SDS011;62389;51.412;5.436;2022-11-20T00:07:09;13.95;;;8.63;;
74044;SDS011;62389;51.412;5.436;2022-11-20T00:09:34;14.15;;;8.98;;
74044;SDS011;62389;51.412;5.436;2022-11-20T00:12:00;14.07;;;8.48;;
74044;SDS011;62389;51.412;5.436;2022-11-20T00:14:25;14.00;;;8.05;;
74044;SDS011;62389;51.412;5.436;2022-11-20T00:16:50;14.73;;;8.23;;
74044;SDS011;62389;51.412;5.436;2022-11-20T00:19:16;15.77;;;9.00;;
74044;SDS011;62389;51.412;5.436;2022-11-20T00:21:41;13.52;;;8.23;;
74044;SDS011;62389;51.412;5.436;2022-11-20T00:24:08;14.30;;;7.40;;
74044;SDS011;62389;51.412;5.436;2022-11-20T00:26:35;17.45;;;8.45;;
74044;SDS011;62389;51.412;5.436;2022-11-20T00:29:00;14.45;;;8.05;;
74044;SDS011;62389;51.412;5.436;2022-11-20T00:31:26;15.35;;;8.05;;
74044;SDS011;62389;51.412;5.436;2022-11-20T00:33:52;14.05;;;8.73;;
74044;SDS011;62389;51.412;5.436;2022-11-20T00:36:19;14.15;;;8.90;;
74044;SDS011;62389;51.412;5.436;2022-11-20T00:38:46;14.98;;;8.55;;
74044;SDS011;62389;51.412;5.436;2022-11-20T00:41:15;15.48;;;8.82;;
74044;SDS011;62389;51.412;5.436;2022-11-20T00:43:41;14.52;;;8.85;;
74044;SDS011;62389;51.412;5.436;2022-11-20T00:46:14;16.02;;;8.20;;
74044;SDS011;62389;51.412;5.436;2022-11-20T00:48:44;14.82;;;7.93;;
74044;SDS011;62389;51.412;5.436;2022-11-20T00:51:11;16.48;;;9.38;;
74044;SDS011;62389;51.412;5.436;2022-11-20T00:53:37;16.10;;;8.25;;
74044;SDS011;62389;51.412;5.436;2022-11-20T00:56:07;13.65;;;7.80;;
74044;SDS011;62389;51.412;5.436;2022-11-20T00:58:36;12.90;;;7.28;;
74044;SDS011;62389;51.412;5.436;2022-11-20T01:01:04;15.15;;;8.45;;
74044;SDS011;62389;51.412;5.436;2022-11-20T01:03:35;15.98;;;8.75;;
74044;SDS011;62389;51.412;5.436;2022-11-20T01:06:09;15.13;;;8.30;;
74044;SDS011;62389;51.412;5.436;2022-11-20T01:08:36;16.20;;;8.63;;
74044;SDS011;62389;51.412;5.436;2022-11-20T01:11:03;18.67;;;9.23;;
74044;SDS011;62389;51.412;5.436;2022-11-20T01:13:31;13.02;;;8.02;;
74044;SDS011;62389;51.412;5.436;2022-11-20T01:16:16;15.00;;;9.02;;
74044;SDS011;62389;51.412;5.436;2022-11-20T01:18:47;14.75;;;8.38;;
74044;SDS011;62389;51.412;5.436;2022-11-20T01:23:41;15.90;;;9.68;;
74044;SDS011;62389;51.412;5.436;2022-11-20T01:26:08;14.40;;;9.35;;
74044;SDS011;62389;51.412;5.436;2022-11-20T01:28:36;14.98;;;8.57;;
74044;SDS011;62389;51.412;5.436;2022-11-20T01:31:02;16.45;;;7.65;;
74044;SDS011;62389;51.412;5.436;2022-11-20T01:33:37;12.88;;;7.88;;
74044;SDS011;62389;51.412;5.436;2022-11-20T01:36:03;15.98;;;8.57;;
74044;SDS011;62389;51.412;5.436;2022-11-20T01:38:30;15.48;;;8.88;;
74044;SDS011;62389;51.412;5.436;2022-11-20T01:40:55;15.20;;;9.25;;
74044;SDS011;62389;51.412;5.436;2022-11-20T01:43:21;15.77;;;9.15;;
74044;SDS011;62389;51.412;5.436;2022-11-20T01:48:32;16.17;;;8.88;;
74044;SDS011;62389;51.412;5.436;2022-11-20T01:51:02;19.25;;;10.18;;
74044;SDS011;62389;51.412;5.436;2022-11-20T01:53:30;17.13;;;10.30;;
74044;SDS011;62389;51.412;5.436;2022-11-20T01:56:00;16.83;;;9.60;;
74044;SDS011;62389;51.412;5.436;2022-11-20T01:58:28;15.65;;;8.80;;
74044;SDS011;62389;51.412;5.436;2022-11-20T02:00:57;16.50;;;8.88;;
74044;SDS011;62389;51.412;5.436;2022-11-20T02:03:22;17.40;;;9.52;;
74044;SDS011;62389;51.412;5.436;2022-11-20T02:08:14;17.10;;;10.43;;
74044;SDS011;62389;51.412;5.436;2022-11-20T02:10:40;15.88;;;7.88;;
74044;SDS011;62389;51.412;5.436;2022-11-20T02:13:05;15.27;;;9.75;;
74044;SDS011;62389;51.412;5.436;2022-11-20T02:15:54;15.50;;;9.27;;
74044;SDS011;62389;51.412;5.436;2022-11-20T02:18:20;17.30;;;9.77;;
74044;SDS011;62389;51.412;5.436;2022-11-20T02:20:47;19.45;;;9.15;;
74044;SDS011;62389;51.412;5.436;2022-11-20T02:25:40;16.83;;;10.10;;
74044;SDS011;62389;51.412;5.436;2022-11-20T02:28:08;17.58;;;10.20;;
74044;SDS011;62389;51.412;5.436;2022-11-20T02:30:34;18.77;;;10.32;;
74044;SDS011;62389;51.412;5.436;2022-11-20T02:32:59;16.00;;;9.98;;
74044;SDS011;62389;51.412;5.436;2022-11-20T02:37:51;18.43;;;10.57;;
74044;SDS011;62389;51.412;5.436;2022-11-20T02:40:19;17.90;;;10.57;;
74044;SDS011;62389;51.412;5.436;2022-11-20T02:42:45;19.80;;;10.85;;
74044;SDS011;62389;51.412;5.436;2022-11-20T02:45:10;18.38;;;9.70;;
74044;SDS011;62389;51.412;5.436;2022-11-20T02:47:36;16.50;;;10.15;;
74044;SDS011;62389;51.412;5.436;2022-11-20T02:50:01;18.95;;;10.65;;
74044;SDS011;62389;51.412;5.436;2022-11-20T02:52:27;20.85;;;11.48;;
74044;SDS011;62389;51.412;5.436;2022-11-20T02:54:53;15.13;;;9.60;;
74044;SDS011;62389;51.412;5.436;2022-11-20T02:57:18;15.70;;;9.40;;
74044;SDS011;62389;51.412;5.436;2022-11-20T02:59:43;17.40;;;10.88;;
74044;SDS011;62389;51.412;5.436;2022-11-20T03:02:09;17.60;;;10.43;;
74044;SDS011;62389;51.412;5.436;2022-11-20T03:04:34;18.80;;;9.77;;
74044;SDS011;62389;51.412;5.436;2022-11-20T03:06:59;15.60;;;9.63;;
74044;SDS011;62389;51.412;5.436;2022-11-20T03:09:25;16.30;;;9.77;;
74044;SDS011;62389;51.412;5.436;2022-11-20T03:11:50;16.38;;;9.13;;
74044;SDS011;62389;51.412;5.436;2022-11-20T03:14:16;15.45;;;9.10;;
74044;SDS011;62389;51.412;5.436;2022-11-20T03:16:41;16.45;;;9.25;;
74044;SDS011;62389;51.412;5.436;2022-11-20T03:19:07;16.63;;;10.18;;
74044;SDS011;62389;51.412;5.436;2022-11-20T03:21:32;13.98;;;8.65;;
74044;SDS011;62389;51.412;5.436;2022-11-20T03:23:58;15.75;;;9.23;;
74044;SDS011;62389;51.412;5.436;2022-11-20T03:26:24;16.80;;;9.68;;
74044;SDS011;62389;51.412;5.436;2022-11-20T03:28:51;15.32;;;9.23;;
74044;SDS011;62389;51.412;5.436;2022-11-20T03:31:19;16.90;;;9.88;;
74044;SDS011;62389;51.412;5.436;2022-11-20T03:33:46;15.57;;;8.15;;
74044;SDS011;62389;51.412;5.436;2022-11-20T03:36:12;16.92;;;9.43;;
74044;SDS011;62389;51.412;5.436;2022-11-20T03:38:39;14.95;;;8.55;;
74044;SDS011;62389;51.412;5.436;2022-11-20T03:41:06;18.25;;;9.93;;
74044;SDS011;62389;51.412;5.436;2022-11-20T03:43:33;16.05;;;8.70;;
74044;SDS011;62389;51.412;5.436;2022-11-20T03:45:59;18.33;;;10.18;;
74044;SDS011;62389;51.412;5.436;2022-11-20T03:48:24;17.00;;;9.27;;
74044;SDS011;62389;51.412;5.436;2022-11-20T03:50:51;17.77;;;9.27;;
74044;SDS011;62389;51.412;5.436;2022-11-20T03:53:17;16.33;;;9.02;;
74044;SDS011;62389;51.412;5.436;2022-11-20T03:55:42;14.63;;;8.38;;
74044;SDS011;62389;51.412;5.436;2022-11-20T03:58:08;14.50;;;8.80;;
74044;SDS011;62389;51.412;5.436;2022-11-20T04:00:34;17.15;;;7.95;;
74044;SDS011;62389;51.412;5.436;2022-11-20T04:03:00;16.45;;;10.02;;
74044;SDS011;62389;51.412;5.436;2022-11-20T04:05:26;14.27;;;8.77;;
74044;SDS011;62389;51.412;5.436;2022-11-20T04:07:51;16.10;;;8.18;;
74044;SDS011;62389;51.412;5.436;2022-11-20T04:10:17;16.38;;;9.30;;
74044;SDS011;62389;51.412;5.436;2022-11-20T04:12:42;16.48;;;10.02;;
74044;SDS011;62389;51.412;5.436;2022-11-20T04:15:07;16.65;;;9.60;;
74044;SDS011;62389;51.412;5.436;2022-11-20T04:17:33;15.55;;;9.43;;
74044;SDS011;62389;51.412;5.436;2022-11-20T04:19:59;18.02;;;9.88;;
74044;SDS011;62389;51.412;5.436;2022-11-20T04:22:24;15.48;;;9.20;;
74044;SDS011;62389;51.412;5.436;2022-11-20T04:24:49;17.98;;;9.35;;
74044;SDS011;62389;51.412;5.436;2022-11-20T04:27:15;18.63;;;9.73;;
74044;SDS011;62389;51.412;5.436;2022-11-20T04:29:40;16.63;;;10.30;;
74044;SDS011;62389;51.412;5.436;2022-11-20T04:32:06;17.05;;;9.48;;
74044;SDS011;62389;51.412;5.436;2022-11-20T04:34:31;18.77;;;9.77;;
74044;SDS011;62389;51.412;5.436;2022-11-20T04:36:56;19.08;;;9.85;;
74044;SDS011;62389;51.412;5.436;2022-11-20T04:39:22;18.73;;;10.25;;
74044;SDS011;62389;51.412;5.436;2022-11-20T04:41:47;18.50;;;10.18;;
74044;SDS011;62389;51.412;5.436;2022-11-20T04:44:13;16.45;;;9.75;;
74044;SDS011;62389;51.412;5.436;2022-11-20T04:46:39;17.95;;;9.10;;
74044;SDS011;62389;51.412;5.436;2022-11-20T04:49:06;17.13;;;11.30;;
74044;SDS011;62389;51.412;5.436;2022-11-20T04:51:32;18.60;;;9.60;;
74044;SDS011;62389;51.412;5.436;2022-11-20T04:53:58;16.98;;;10.05;;
74044;SDS011;62389;51.412;5.436;2022-11-20T04:56:23;17.27;;;9.55;;
74044;SDS011;62389;51.412;5.436;2022-11-20T04:58:49;14.07;;;8.70;;
74044;SDS011;62389;51.412;5.436;2022-11-20T05:01:23;16.02;;;9.25;;
74044;SDS011;62389;51.412;5.436;2022-11-20T05:03:49;18.88;;;10.07;;
74044;SDS011;62389;51.412;5.436;2022-11-20T05:06:16;17.30;;;10.02;;
74044;SDS011;62389;51.412;5.436;2022-11-20T05:08:43;18.48;;;9.07;;
74044;SDS011;62389;51.412;5.436;2022-11-20T05:11:09;17.92;;;10.73;;
74044;SDS011;62389;51.412;5.436;2022-11-20T05:13:40;23.75;;;10.18;;
74044;SDS011;62389;51.412;5.436;2022-11-20T05:16:06;16.55;;;10.48;;
74044;SDS011;62389;51.412;5.436;2022-11-20T05:18:36;17.13;;;10.13;;
74044;SDS011;62389;51.412;5.436;2022-11-20T05:21:02;18.00;;;10.10;;
74044;SDS011;62389;51.412;5.436;2022-11-20T05:23:28;18.02;;;9.95;;
74044;SDS011;62389;51.412;5.436;2022-11-20T05:25:55;19.55;;;11.10;;
74044;SDS011;62389;51.412;5.436;2022-11-20T05:28:21;17.00;;;9.75;;
74044;SDS011;62389;51.412;5.436;2022-11-20T05:30:47;18.08;;;9.85;;
74044;SDS011;62389;51.412;5.436;2022-11-20T05:33:13;18.05;;;9.80;;
74044;SDS011;62389;51.412;5.436;2022-11-20T05:35:39;17.92;;;10.45;;
74044;SDS011;62389;51.412;5.436;2022-11-20T05:38:04;15.32;;;10.18;;
74044;SDS011;62389;51.412;5.436;2022-11-20T05:40:30;15.73;;;9.45;;
74044;SDS011;62389;51.412;5.436;2022-11-20T05:42:55;18.70;;;9.45;;
74044;SDS011;62389;51.412;5.436;2022-11-20T05:45:21;18.55;;;10.15;;
74044;SDS011;62389;51.412;5.436;2022-11-20T05:47:46;17.23;;;10.35;;
74044;SDS011;62389;51.412;5.436;2022-11-20T05:52:37;17.00;;;9.95;;
74044;SDS011;62389;51.412;5.436;2022-11-20T05:55:02;19.20;;;8.25;;
74044;SDS011;62389;51.412;5.436;2022-11-20T05:57:28;20.08;;;8.40;;
74044;SDS011;62389;51.412;5.436;2022-11-20T05:59:53;17.10;;;9.85;;
74044;SDS011;62389;51.412;5.436;2022-11-20T06:02:18;16.90;;;10.00;;
74044;SDS011;62389;51.412;5.436;2022-11-20T06:04:44;18.08;;;10.23;;
74044;SDS011;62389;51.412;5.436;2022-11-20T06:07:09;15.77;;;9.25;;
74044;SDS011;62389;51.412;5.436;2022-11-20T06:09:35;15.57;;;9.40;;
74044;SDS011;62389;51.412;5.436;2022-11-20T06:12:00;18.25;;;10.30;;
74044;SDS011;62389;51.412;5.436;2022-11-20T06:14:26;17.02;;;8.07;;
74044;SDS011;62389;51.412;5.436;2022-11-20T06:16:51;15.55;;;8.98;;
74044;SDS011;62389;51.412;5.436;2022-11-20T06:19:16;17.42;;;9.25;;
74044;SDS011;62389;51.412;5.436;2022-11-20T06:21:42;16.95;;;9.88;;
74044;SDS011;62389;51.412;5.436;2022-11-20T06:24:08;20.33;;;11.77;;
74044;SDS011;62389;51.412;5.436;2022-11-20T06:26:35;15.98;;;9.43;;
74044;SDS011;62389;51.412;5.436;2022-11-20T06:29:00;16.25;;;9.48;;
74044;SDS011;62389;51.412;5.436;2022-11-20T06:31:26;18.92;;;9.25;;
74044;SDS011;62389;51.412;5.436;2022-11-20T06:33:51;15.02;;;9.38;;
74044;SDS011;62389;51.412;5.436;2022-11-20T06:36:18;16.23;;;9.77;;
74044;SDS011;62389;51.412;5.436;2022-11-20T06:38:44;17.30;;;8.18;;
74044;SDS011;62389;51.412;5.436;2022-11-20T06:41:11;17.80;;;9.02;;
74044;SDS011;62389;51.412;5.436;2022-11-20T06:43:41;18.48;;;9.02;;
74044;SDS011;62389;51.412;5.436;2022-11-20T06:46:06;17.55;;;9.00;;
74044;SDS011;62389;51.412;5.436;2022-11-20T06:48:33;16.33;;;9.30;;
74044;SDS011;62389;51.412;5.436;2022-11-20T06:50:59;17.90;;;9.50;;
74044;SDS011;62389;51.412;5.436;2022-11-20T06:53:24;16.05;;;9.20;;
74044;SDS011;62389;51.412;5.436;2022-11-20T06:55:50;18.52;;;10.27;;
74044;SDS011;62389;51.412;5.436;2022-11-20T06:58:16;16.23;;;9.77;;
74044;SDS011;62389;51.412;5.436;2022-11-20T07:00:43;15.23;;;9.02;;
74044;SDS011;62389;51.412;5.436;2022-11-20T07:03:10;17.10;;;9.40;;
74044;SDS011;62389;51.412;5.436;2022-11-20T07:05:36;18.00;;;9.43;;
74044;SDS011;62389;51.412;5.436;2022-11-20T07:08:03;17.10;;;9.80;;
74044;SDS011;62389;51.412;5.436;2022-11-20T07:10:29;16.90;;;10.38;;
74044;SDS011;62389;51.412;5.436;2022-11-20T07:12:55;17.48;;;9.82;;
74044;SDS011;62389;51.412;5.436;2022-11-20T07:15:21;18.98;;;10.45;;
74044;SDS011;62389;51.412;5.436;2022-11-20T07:17:47;17.30;;;9.68;;
74044;SDS011;62389;51.412;5.436;2022-11-20T07:20:13;17.00;;;9.82;;
74044;SDS011;62389;51.412;5.436;2022-11-20T07:22:39;17.40;;;10.05;;
74044;SDS011;62389;51.412;5.436;2022-11-20T07:25:05;16.08;;;9.45;;
74044;SDS011;62389;51.412;5.436;2022-11-20T07:27:31;16.73;;;9.27;;
74044;SDS011;62389;51.412;5.436;2022-11-20T07:29:57;16.85;;;9.40;;
74044;SDS011;62389;51.412;5.436;2022-11-20T07:32:22;18.58;;;10.65;;
74044;SDS011;62389;51.412;5.436;2022-11-20T07:34:48;15.98;;;9.90;;
74044;SDS011;62389;51.412;5.436;2022-11-20T07:37:13;17.33;;;10.48;;
74044;SDS011;62389;51.412;5.436;2022-11-20T07:39:39;16.00;;;10.18;;
74044;SDS011;62389;51.412;5.436;2022-11-20T07:42:08;16.60;;;9.82;;
74044;SDS011;62389;51.412;5.436;2022-11-20T07:44:33;17.70;;;10.85;;
74044;SDS011;62389;51.412;5.436;2022-11-20T07:46:59;16.75;;;10.10;;
74044;SDS011;62389;51.412;5.436;2022-11-20T07:49:25;17.92;;;10.18;;
74044;SDS011;62389;51.412;5.436;2022-11-20T07:51:51;16.58;;;9.48;;
74044;SDS011;62389;51.412;5.436;2022-11-20T07:59:09;19.73;;;9.77;;
74044;SDS011;62389;51.412;5.436;2022-11-20T08:01:36;17.48;;;10.23;;
74044;SDS011;62389;51.412;5.436;2022-11-20T08:04:02;19.88;;;10.20;;
74044;SDS011;62389;51.412;5.436;2022-11-20T08:06:28;17.27;;;10.38;;
74044;SDS011;62389;51.412;5.436;2022-11-20T08:08:53;15.82;;;9.27;;
74044;SDS011;62389;51.412;5.436;2022-11-20T08:11:18;17.42;;;10.13;;
74044;SDS011;62389;51.412;5.436;2022-11-20T08:14:02;20.30;;;10.27;;
74044;SDS011;62389;51.412;5.436;2022-11-20T08:16:37;17.05;;;10.55;;
74044;SDS011;62389;51.412;5.436;2022-11-20T08:19:07;19.42;;;10.40;;
74044;SDS011;62389;51.412;5.436;2022-11-20T08:21:32;17.60;;;10.82;;
74044;SDS011;62389;51.412;5.436;2022-11-20T08:23:58;17.73;;;10.10;;
74044;SDS011;62389;51.412;5.436;2022-11-20T08:26:24;19.08;;;10.75;;
74044;SDS011;62389;51.412;5.436;2022-11-20T08:28:53;19.02;;;9.75;;
74044;SDS011;62389;51.412;5.436;2022-11-20T08:31:20;19.15;;;10.50;;
74044;SDS011;62389;51.412;5.436;2022-11-20T08:33:46;20.83;;;11.98;;
74044;SDS011;62389;51.412;5.436;2022-11-20T08:36:12;18.90;;;9.65;;
74044;SDS011;62389;51.412;5.436;2022-11-20T08:38:37;18.98;;;10.90;;
74044;SDS011;62389;51.412;5.436;2022-11-20T08:41:03;19.42;;;11.02;;
74044;SDS011;62389;51.412;5.436;2022-11-20T08:43:48;20.23;;;10.80;;
74044;SDS011;62389;51.412;5.436;2022-11-20T08:46:15;20.75;;;11.15;;
74044;SDS011;62389;51.412;5.436;2022-11-20T08:48:41;21.33;;;11.23;;
74044;SDS011;62389;51.412;5.436;2022-11-20T08:51:07;20.08;;;11.68;;
74044;SDS011;62389;51.412;5.436;2022-11-20T08:53:32;19.42;;;10.93;;
74044;SDS011;62389;51.412;5.436;2022-11-20T08:55:58;21.63;;;11.93;;
74044;SDS011;62389;51.412;5.436;2022-11-20T08:58:24;19.63;;;11.25;;
74044;SDS011;62389;51.412;5.436;2022-11-20T09:00:50;22.60;;;11.70;;
74044;SDS011;62389;51.412;5.436;2022-11-20T09:03:15;25.35;;;12.52;;
74044;SDS011;62389;51.412;5.436;2022-11-20T09:05:41;25.27;;;11.85;;
74044;SDS011;62389;51.412;5.436;2022-11-20T09:08:07;23.60;;;12.10;;
74044;SDS011;62389;51.412;5.436;2022-11-20T09:10:33;25.95;;;12.40;;
74044;SDS011;62389;51.412;5.436;2022-11-20T09:12:59;27.20;;;13.10;;
74044;SDS011;62389;51.412;5.436;2022-11-20T09:15:24;33.42;;;15.05;;
74044;SDS011;62389;51.412;5.436;2022-11-20T09:17:51;27.42;;;13.35;;
74044;SDS011;62389;51.412;5.436;2022-11-20T09:20:17;34.22;;;13.95;;
74044;SDS011;62389;51.412;5.436;2022-11-20T09:22:42;32.60;;;13.45;;
74044;SDS011;62389;51.412;5.436;2022-11-20T09:25:08;36.67;;;15.52;;
74044;SDS011;62389;51.412;5.436;2022-11-20T09:27:33;30.83;;;13.23;;
74044;SDS011;62389;51.412;5.436;2022-11-20T09:30:00;37.95;;;16.13;;
74044;SDS011;62389;51.412;5.436;2022-11-20T09:32:26;30.98;;;14.70;;
74044;SDS011;62389;51.412;5.436;2022-11-20T09:34:51;37.50;;;15.60;;
74044;SDS011;62389;51.412;5.436;2022-11-20T09:37:16;31.77;;;14.10;;
74044;SDS011;62389;51.412;5.436;2022-11-20T09:39:41;34.38;;;14.40;;
74044;SDS011;62389;51.412;5.436;2022-11-20T09:42:17;31.52;;;14.80;;
74044;SDS011;62389;51.412;5.436;2022-11-20T09:44:48;36.63;;;15.23;;
74044;SDS011;62389;51.412;5.436;2022-11-20T09:47:36;34.85;;;14.32;;
74044;SDS011;62389;51.412;5.436;2022-11-20T09:50:28;44.47;;;16.90;;
74044;SDS011;62389;51.412;5.436;2022-11-20T09:55:35;37.72;;;16.10;;
74044;SDS011;62389;51.412;5.436;2022-11-20T09:58:02;32.38;;;16.85;;
74044;SDS011;62389;51.412;5.436;2022-11-20T10:00:31;37.70;;;16.48;;
74044;SDS011;62389;51.412;5.436;2022-11-20T10:08:05;35.10;;;15.35;;
74044;SDS011;62389;51.412;5.436;2022-11-20T10:10:42;38.97;;;16.20;;
74044;SDS011;62389;51.412;5.436;2022-11-20T10:13:22;46.38;;;19.48;;
74044;SDS011;62389;51.412;5.436;2022-11-20T10:18:45;38.70;;;18.23;;
74044;SDS011;62389;51.412;5.436;2022-11-20T10:29:13;33.65;;;15.85;;
74044;SDS011;62389;51.412;5.436;2022-11-20T10:31:41;33.42;;;15.55;;
74044;SDS011;62389;51.412;5.436;2022-11-20T10:36:43;33.00;;;15.75;;
74044;SDS011;62389;51.412;5.436;2022-11-20T10:39:25;40.05;;;17.05;;
74044;SDS011;62389;51.412;5.436;2022-11-20T10:41:53;32.63;;;16.80;;
74044;SDS011;62389;51.412;5.436;2022-11-20T10:44:20;34.25;;;16.15;;
74044;SDS011;62389;51.412;5.436;2022-11-20T10:47:16;33.60;;;16.60;;
74044;SDS011;62389;51.412;5.436;2022-11-20T10:49:47;40.03;;;17.40;;
74044;SDS011;62389;51.412;5.436;2022-11-20T11:00:32;38.17;;;16.58;;
74044;SDS011;62389;51.412;5.436;2022-11-20T11:02:57;35.10;;;14.95;;
74044;SDS011;62389;51.412;5.436;2022-11-20T11:08:14;38.92;;;17.00;;
74044;SDS011;62389;51.412;5.436;2022-11-20T11:10:45;39.17;;;17.05;;
74044;SDS011;62389;51.412;5.436;2022-11-20T11:13:26;37.95;;;17.10;;
74044;SDS011;62389;51.412;5.436;2022-11-20T11:15:54;39.67;;;18.88;;
74044;SDS011;62389;51.412;5.436;2022-11-20T11:18:25;39.88;;;15.75;;
74044;SDS011;62389;51.412;5.436;2022-11-20T11:20:59;36.50;;;15.35;;
74044;SDS011;62389;51.412;5.436;2022-11-20T11:23:33;34.85;;;14.38;;
74044;SDS011;62389;51.412;5.436;2022-11-20T11:26:27;39.30;;;18.58;;
74044;SDS011;62389;51.412;5.436;2022-11-20T11:28:56;39.38;;;16.45;;
74044;SDS011;62389;51.412;5.436;2022-11-20T11:31:26;34.88;;;13.60;;
74044;SDS011;62389;51.412;5.436;2022-11-20T11:36:31;36.58;;;16.05;;
74044;SDS011;62389;51.412;5.436;2022-11-20T11:38:59;36.97;;;15.60;;
74044;SDS011;62389;51.412;5.436;2022-11-20T11:41:28;39.30;;;14.85;;
74044;SDS011;62389;51.412;5.436;2022-11-20T11:44:00;33.03;;;15.13;;
74044;SDS011;62389;51.412;5.436;2022-11-20T11:46:58;35.53;;;15.23;;
74044;SDS011;62389;51.412;5.436;2022-11-20T11:49:23;32.88;;;14.15;;
74044;SDS011;62389;51.412;5.436;2022-11-20T11:54:41;38.05;;;16.73;;
74044;SDS011;62389;51.412;5.436;2022-11-20T11:57:22;32.60;;;14.52;;
74044;SDS011;62389;51.412;5.436;2022-11-20T12:00:08;36.10;;;15.88;;
74044;SDS011;62389;51.412;5.436;2022-11-20T12:05:29;34.33;;;15.38;;
74044;SDS011;62389;51.412;5.436;2022-11-20T12:10:50;34.95;;;15.43;;
74044;SDS011;62389;51.412;5.436;2022-11-20T12:15:50;34.10;;;15.23;;
74044;SDS011;62389;51.412;5.436;2022-11-20T12:18:20;38.78;;;15.18;;
74044;SDS011;62389;51.412;5.436;2022-11-20T12:26:27;39.38;;;16.42;;
74044;SDS011;62389;51.412;5.436;2022-11-20T12:37:33;35.15;;;13.70;;
74044;SDS011;62389;51.412;5.436;2022-11-20T12:45:59;36.25;;;15.57;;
74044;SDS011;62389;51.412;5.436;2022-11-20T12:51:43;35.63;;;14.18;;
74044;SDS011;62389;51.412;5.436;2022-11-20T12:57:29;36.60;;;14.93;;
74044;SDS011;62389;51.412;5.436;2022-11-20T13:00:42;34.78;;;14.07;;
74044;SDS011;62389;51.412;5.436;2022-11-20T13:03:25;39.97;;;16.35;;
74044;SDS011;62389;51.412;5.436;2022-11-20T13:08:32;43.53;;;17.00;;
74044;SDS011;62389;51.412;5.436;2022-11-20T13:16:53;50.17;;;19.40;;
74044;SDS011;62389;51.412;5.436;2022-11-20T13:19:25;39.88;;;14.10;;
74044;SDS011;62389;51.412;5.436;2022-11-20T13:21:52;41.63;;;16.27;;
74044;SDS011;62389;51.412;5.436;2022-11-20T13:29:47;37.58;;;17.13;;
74044;SDS011;62389;51.412;5.436;2022-11-20T13:32:25;39.60;;;15.98;;
74044;SDS011;62389;51.412;5.436;2022-11-20T13:34:59;46.47;;;16.00;;
74044;SDS011;62389;51.412;5.436;2022-11-20T13:37:31;40.90;;;17.05;;
74044;SDS011;62389;51.412;5.436;2022-11-20T13:42:54;39.05;;;15.55;;
74044;SDS011;62389;51.412;5.436;2022-11-20T13:47:53;33.47;;;17.17;;
74044;SDS011;62389;51.412;5.436;2022-11-20T13:50:19;37.58;;;15.32;;
74044;SDS011;62389;51.412;5.436;2022-11-20T14:01:11;37.67;;;15.68;;
74044;SDS011;62389;51.412;5.436;2022-11-20T14:03:41;38.38;;;14.63;;
74044;SDS011;62389;51.412;5.436;2022-11-20T14:06:15;47.95;;;17.08;;
74044;SDS011;62389;51.412;5.436;2022-11-20T14:08:46;41.65;;;15.07;;
74044;SDS011;62389;51.412;5.436;2022-11-20T14:11:15;44.78;;;16.00;;
74044;SDS011;62389;51.412;5.436;2022-11-20T14:14:04;40.25;;;15.98;;
74044;SDS011;62389;51.412;5.436;2022-11-20T14:16:40;38.72;;;16.20;;
74044;SDS011;62389;51.412;5.436;2022-11-20T14:21:46;38.40;;;16.13;;
74044;SDS011;62389;51.412;5.436;2022-11-20T14:24:12;37.63;;;15.02;;
74044;SDS011;62389;51.412;5.436;2022-11-20T14:26:43;46.40;;;19.77;;
74044;SDS011;62389;51.412;5.436;2022-11-20T14:29:27;42.45;;;17.13;;
74044;SDS011;62389;51.412;5.436;2022-11-20T14:31:57;45.30;;;15.52;;
74044;SDS011;62389;51.412;5.436;2022-11-20T14:34:27;47.60;;;18.98;;
74044;SDS011;62389;51.412;5.436;2022-11-20T14:36:56;38.70;;;15.65;;
74044;SDS011;62389;51.412;5.436;2022-11-20T14:39:29;47.38;;;17.73;;
74044;SDS011;62389;51.412;5.436;2022-11-20T14:41:57;36.47;;;15.00;;
74044;SDS011;62389;51.412;5.436;2022-11-20T14:44:26;44.50;;;15.32;;
74044;SDS011;62389;51.412;5.436;2022-11-20T14:46:55;50.15;;;19.83;;
74044;SDS011;62389;51.412;5.436;2022-11-20T14:49:22;42.53;;;16.00;;
74044;SDS011;62389;51.412;5.436;2022-11-20T14:51:58;50.03;;;17.80;;
74044;SDS011;62389;51.412;5.436;2022-11-20T14:54:28;37.00;;;15.07;;
74044;SDS011;62389;51.412;5.436;2022-11-20T14:59:27;46.10;;;17.08;;
74044;SDS011;62389;51.412;5.436;2022-11-20T15:01:58;40.08;;;15.75;;
74044;SDS011;62389;51.412;5.436;2022-11-20T15:04:26;48.45;;;17.00;;
74044;SDS011;62389;51.412;5.436;2022-11-20T15:06:52;54.60;;;17.35;;
74044;SDS011;62389;51.412;5.436;2022-11-20T15:09:19;43.85;;;17.33;;
74044;SDS011;62389;51.412;5.436;2022-11-20T15:11:55;59.72;;;27.45;;
74044;SDS011;62389;51.412;5.436;2022-11-20T15:14:23;55.90;;;25.75;;
74044;SDS011;62389;51.412;5.436;2022-11-20T15:16:50;51.63;;;19.92;;
74044;SDS011;62389;51.412;5.436;2022-11-20T15:19:20;54.58;;;21.17;;
74044;SDS011;62389;51.412;5.436;2022-11-20T15:21:47;57.33;;;19.98;;
74044;SDS011;62389;51.412;5.436;2022-11-20T15:24:13;46.83;;;19.90;;
74044;SDS011;62389;51.412;5.436;2022-11-20T15:26:39;47.85;;;18.48;;
74044;SDS011;62389;51.412;5.436;2022-11-20T15:29:05;59.13;;;23.70;;
74044;SDS011;62389;51.412;5.436;2022-11-20T15:31:34;45.95;;;16.88;;
74044;SDS011;62389;51.412;5.436;2022-11-20T15:33:59;53.35;;;19.90;;
74044;SDS011;62389;51.412;5.436;2022-11-20T15:36:25;48.25;;;17.20;;
74044;SDS011;62389;51.412;5.436;2022-11-20T15:38:50;45.47;;;18.17;;
74044;SDS011;62389;51.412;5.436;2022-11-20T15:41:16;41.30;;;16.20;;
74044;SDS011;62389;51.412;5.436;2022-11-20T15:43:41;48.20;;;18.05;;
74044;SDS011;62389;51.412;5.436;2022-11-20T15:46:11;36.63;;;14.40;;
74044;SDS011;62389;51.412;5.436;2022-11-20T15:53:34;35.77;;;14.33;;
74044;SDS011;62389;51.412;5.436;2022-11-20T15:55:59;40.17;;;16.15;;
74044;SDS011;62389;51.412;5.436;2022-11-20T15:58:25;29.92;;;13.55;;
74044;SDS011;62389;51.412;5.436;2022-11-20T16:00:51;29.77;;;13.45;;
74044;SDS011;62389;51.412;5.436;2022-11-20T16:03:17;30.15;;;13.55;;
74044;SDS011;62389;51.412;5.436;2022-11-20T16:05:43;28.95;;;11.27;;
74044;SDS011;62389;51.412;5.436;2022-11-20T16:08:08;36.58;;;12.10;;
74044;SDS011;62389;51.412;5.436;2022-11-20T16:10:34;25.10;;;10.32;;
74044;SDS011;62389;51.412;5.436;2022-11-20T16:13:00;25.42;;;10.00;;
74044;SDS011;62389;51.412;5.436;2022-11-20T16:15:44;26.35;;;11.02;;
74044;SDS011;62389;51.412;5.436;2022-11-20T16:20:44;21.63;;;11.20;;
74044;SDS011;62389;51.412;5.436;2022-11-20T16:23:19;20.05;;;8.95;;
74044;SDS011;62389;51.412;5.436;2022-11-20T16:25:45;13.85;;;8.43;;
74044;SDS011;62389;51.412;5.436;2022-11-20T16:28:12;17.20;;;9.88;;
74044;SDS011;62389;51.412;5.436;2022-11-20T16:30:37;17.52;;;9.25;;
74044;SDS011;62389;51.412;5.436;2022-11-20T16:33:03;23.50;;;10.45;;
74044;SDS011;62389;51.412;5.436;2022-11-20T16:35:30;13.65;;;7.90;;
74044;SDS011;62389;51.412;5.436;2022-11-20T16:37:56;13.50;;;7.95;;
74044;SDS011;62389;51.412;5.436;2022-11-20T16:40:23;13.82;;;7.60;;
74044;SDS011;62389;51.412;5.436;2022-11-20T16:42:49;41.00;;;26.58;;
74044;SDS011;62389;51.412;5.436;2022-11-20T16:45:14;12.32;;;7.13;;